Time;durP1;ratioP1;P1;durP2;ratioP2;P2;SDS_P1;SDS_P2;PMS_P1;PMS_P2;Temp;Humidity;BMP_temperature;BMP_pressure;BME280_temperature;BME280_humidity;BME280_pressure;Samples;Min_cycle;Max_cycle;Signal;HPM_P1;HPM_P2
2022/07/14 00:00:54;;;;;;;;;;;;;;;12.22;100.00;101453.19;5010641;28;19920;-74
2022/07/14 00:03:20;;;;;;;;;;;;;;;12.15;100.00;101444.13;5026703;28;20269;-75
2022/07/14 00:05:45;;;;;;;;;;;;;;;12.16;100.00;101459.16;5034944;28;19939;-78
2022/07/14 00:08:11;;;;;;;;;;;;;;;12.17;100.00;101462.69;5026589;28;19913;-76
2022/07/14 00:10:36;;;;;;;;;;;;;;;12.16;100.00;101458.34;5041683;28;19909;-75
2022/07/14 00:13:01;;;;;;;;;;;;;;;12.17;100.00;101458.16;5026182;28;20326;-75
2022/07/14 00:15:27;;;;;;;;;;;;;;;12.05;100.00;101459.41;5026837;28;19913;-77
2022/07/14 00:17:52;;;;;;;;;;;;;;;12.06;100.00;101463.78;5025296;28;19921;-75
2022/07/14 00:20:18;;;;;;;;;;;;;;;11.92;100.00;101456.31;5026488;28;20006;-75
2022/07/14 00:22:44;;;;;;;;;;;;;;;11.99;100.00;101457.38;5041716;28;20358;-76
2022/07/14 00:25:09;;;;;;;;;;;;;;;11.96;100.00;101452.31;5026240;28;20396;-74
2022/07/14 00:27:35;;;;;;;;;;;;;;;11.89;100.00;101446.72;5019015;28;20007;-75
2022/07/14 00:30:01;;;;;;;;;;;;;;;11.86;100.00;101446.16;5041240;28;19909;-74
2022/07/14 00:32:26;;;;;;;;;;;;;;;11.86;100.00;101440.81;5041647;28;19912;-75
2022/07/14 00:34:52;;;;;;;;;;;;;;;11.80;100.00;101443.13;5020191;28;19921;-75
2022/07/14 00:37:17;;;;;;;;;;;;;;;11.84;100.00;101447.16;5008654;28;19913;-75
2022/07/14 00:39:55;;;;;;;;;;;;;;;11.87;100.00;101442.50;5041135;28;20370;-75
2022/07/14 00:42:29;;;;;;;;;;;;;;;11.73;100.00;101431.34;5026544;28;19917;-75
2022/07/14 00:44:55;;;;;;;;;;;;;;;11.71;100.00;101438.69;5041539;28;19924;-78
2022/07/14 00:47:20;;;;;;;;;;;;;;;11.59;100.00;101424.72;5009404;28;19912;-78
2022/07/14 00:49:45;;;;;;;;;;;;;;;11.63;100.00;101435.91;5041766;28;20077;-76
2022/07/14 00:52:10;;;;;;;;;;;;;;;11.61;100.00;101445.94;5007447;28;19908;-76
2022/07/14 00:54:36;;;;;;;;;;;;;;;11.59;100.00;101446.09;5026257;28;20285;-75
2022/07/14 00:57:02;;;;;;;;;;;;;;;11.56;100.00;101445.56;5010027;28;19909;-74
2022/07/14 00:59:28;;;;;;;;;;;;;;;11.49;100.00;101444.47;5025637;28;20321;-75
2022/07/14 01:01:54;;;;;;;;;;;;;;;11.48;100.00;101445.47;5041097;28;20067;-75
2022/07/14 01:04:19;;;;;;;;;;;;;;;11.44;100.00;101446.75;5026096;28;19912;-74
2022/07/14 01:06:44;;;;;;;;;;;;;;;11.39;100.00;101441.88;5024390;28;19913;-77
2022/07/14 01:09:10;;;;;;;;;;;;;;;11.34;100.00;101434.31;5026306;28;19931;-78
2022/07/14 01:11:35;;;;;;;;;;;;;;;11.38;100.00;101437.53;5040585;28;19916;-77
2022/07/14 01:14:03;;;;;;;;;;;;;;;11.39;100.00;101439.19;5041022;28;20008;-75
2022/07/14 01:16:29;;;;;;;;;;;;;;;11.32;100.00;101436.28;5026149;28;20216;-75
2022/07/14 01:18:54;;;;;;;;;;;;;;;11.27;100.00;101425.22;5038904;28;20876;-74
2022/07/14 01:21:20;;;;;;;;;;;;;;;11.23;100.00;101421.13;5039937;28;20289;-76
2022/07/14 01:23:45;;;;;;;;;;;;;;;11.21;100.00;101428.47;5038345;28;19944;-76
2022/07/14 01:26:10;;;;;;;;;;;;;;;11.14;100.00;101414.88;5038926;28;19909;-75
2022/07/14 01:28:36;;;;;;;;;;;;;;;11.13;100.00;101409.69;5041657;28;19968;-75
2022/07/14 01:31:01;;;;;;;;;;;;;;;11.16;100.00;101412.88;5025883;28;19909;-74
2022/07/14 01:33:27;;;;;;;;;;;;;;;11.13;100.00;101417.69;5026364;28;20180;-74
2022/07/14 01:35:53;;;;;;;;;;;;;;;11.03;100.00;101414.22;5041527;28;19917;-76
2022/07/14 01:38:18;;;;;;;;;;;;;;;11.00;100.00;101410.03;5041549;28;19913;-74
2022/07/14 01:40:45;;;;;;;;;;;;;;;10.97;100.00;101418.34;5038091;28;20676;-75
2022/07/14 01:43:10;;;;;;;;;;;;;;;10.92;100.00;101417.94;5021557;28;19917;-76
2022/07/14 01:45:36;;;;;;;;;;;;;;;10.90;100.00;101428.78;5040647;28;19968;-76
2022/07/14 01:48:02;;;;;;;;;;;;;;;10.96;100.00;101441.56;5040552;28;20043;-74
2022/07/14 01:50:27;;;;;;;;;;;;;;;10.90;100.00;101444.81;5008727;28;19909;-74
2022/07/14 01:52:53;;;;;;;;;;;;;;;10.89;100.00;101448.47;5025106;28;19932;-75
2022/07/14 01:55:19;;;;;;;;;;;;;;;10.89;100.00;101451.16;5009352;28;19916;-76
2022/07/14 01:57:44;;;;;;;;;;;;;;;11.08;100.00;101460.91;5025597;28;19917;-74
2022/07/14 02:00:11;;;;;;;;;;;;;;;11.07;100.00;101466.38;5012613;28;19948;-75
2022/07/14 02:02:55;;;;;;;;;;;;;;;11.13;100.00;101458.63;5044617;28;19923;-75
2022/07/14 02:05:21;;;;;;;;;;;;;;;11.10;100.00;101455.41;5043941;28;19917;-74
2022/07/14 02:07:48;;;;;;;;;;;;;;;11.17;100.00;101453.84;5044482;28;19958;-74
2022/07/14 02:13:05;;;;;;;;;;;;;;;11.17;100.00;101435.13;5028690;28;19928;-76
2022/07/14 02:15:32;;;;;;;;;;;;;;;11.17;100.00;101435.97;5012436;28;20424;-75
2022/07/14 02:17:58;;;;;;;;;;;;;;;11.13;100.00;101433.75;5043282;28;20076;-75
2022/07/14 02:20:25;;;;;;;;;;;;;;;11.16;100.00;101414.72;5035089;28;19971;-75
2022/07/14 02:22:50;;;;;;;;;;;;;;;11.15;100.00;101410.38;5042557;28;19921;-77
2022/07/14 02:25:15;;;;;;;;;;;;;;;11.08;100.00;101404.78;5043864;28;19948;-75
2022/07/14 02:27:41;;;;;;;;;;;;;;;11.02;100.00;101391.19;5043985;28;20433;-75
2022/07/14 02:30:06;;;;;;;;;;;;;;;11.02;100.00;101385.84;5043024;28;19916;-75
2022/07/14 02:32:31;;;;;;;;;;;;;;;10.96;100.00;101396.13;5010658;28;19944;-75
2022/07/14 02:34:58;;;;;;;;;;;;;;;10.89;100.00;101389.72;5027073;28;20015;-75
2022/07/14 02:37:23;;;;;;;;;;;;;;;10.88;100.00;101393.34;5043420;28;19924;-75
2022/07/14 02:39:49;;;;;;;;;;;;;;;10.89;100.00;101388.88;5011930;28;20140;-75
2022/07/14 02:42:14;;;;;;;;;;;;;;;10.98;100.00;101394.16;5028919;28;20046;-75
2022/07/14 02:44:39;;;;;;;;;;;;;;;10.89;100.00;101395.06;5043788;28;19940;-77
2022/07/14 02:47:05;;;;;;;;;;;;;;;10.86;100.00;101379.31;5043609;28;20028;-77
2022/07/14 02:49:30;;;;;;;;;;;;;;;10.78;100.00;101381.88;5011151;28;19916;-75
2022/07/14 02:51:56;;;;;;;;;;;;;;;10.77;100.00;101390.91;5043327;28;19935;-76
2022/07/14 02:54:22;;;;;;;;;;;;;;;10.75;100.00;101393.72;5003891;28;20378;-75
2022/07/14 02:56:48;;;;;;;;;;;;;;;10.65;100.00;101402.75;5043725;28;19913;-74
2022/07/14 02:59:13;;;;;;;;;;;;;;;10.66;100.00;101405.28;5043873;28;19920;-74
2022/07/14 03:01:43;;;;;;;;;;;;;;;10.60;100.00;101419.19;5042996;28;20405;-74
2022/07/14 03:04:12;;;;;;;;;;;;;;;10.52;100.00;101408.44;5026192;28;19913;-74
2022/07/14 03:06:38;;;;;;;;;;;;;;;10.52;100.00;101419.94;5043060;28;19928;-76
2022/07/14 03:09:05;;;;;;;;;;;;;;;10.50;100.00;101427.25;5042833;28;19913;-76
2022/07/14 03:11:31;;;;;;;;;;;;;;;10.47;100.00;101422.22;5034439;28;19958;-75
2022/07/14 03:13:57;;;;;;;;;;;;;;;10.46;100.00;101415.16;5043003;28;19920;-75
2022/07/14 03:16:23;;;;;;;;;;;;;;;10.49;100.00;101417.56;5035643;28;19921;-75
2022/07/14 03:18:51;;;;;;;;;;;;;;;10.48;100.00;101421.22;5042879;28;20286;-74
2022/07/14 03:21:19;;;;;;;;;;;;;;;10.49;100.00;101417.56;5028102;28;19913;-75
2022/07/14 03:23:48;;;;;;;;;;;;;;;10.48;100.00;101431.88;5043166;28;20266;-74
2022/07/14 03:26:18;;;;;;;;;;;;;;;10.53;100.00;101432.28;5042828;28;20008;-76
2022/07/14 03:28:43;;;;;;;;;;;;;;;10.56;100.00;101437.34;5027516;28;20036;-75
2022/07/14 03:31:08;;;;;;;;;;;;;;;10.57;100.00;101443.53;5042169;28;19966;-75
2022/07/14 03:33:34;;;;;;;;;;;;;;;10.62;100.00;101443.09;5025921;28;19956;-74
2022/07/14 03:35:59;;;;;;;;;;;;;;;10.75;100.00;101441.78;5026265;28;19913;-76
2022/07/14 03:38:25;;;;;;;;;;;;;;;10.83;100.00;101451.72;5027779;28;19939;-74
2022/07/14 03:40:54;;;;;;;;;;;;;;;10.81;100.00;101445.69;5036275;28;19996;-74
2022/07/14 03:43:19;;;;;;;;;;;;;;;10.88;100.00;101446.78;5026118;28;20035;-75
2022/07/14 03:45:45;;;;;;;;;;;;;;;10.97;100.00;101453.91;5042580;28;20392;-75
2022/07/14 03:48:13;;;;;;;;;;;;;;;10.98;100.00;101447.59;5042520;28;19928;-76
2022/07/14 03:50:43;;;;;;;;;;;;;;;10.96;100.00;101444.22;5003429;28;20363;-74
2022/07/14 03:53:09;;;;;;;;;;;;;;;10.98;100.00;101442.25;5027610;28;20147;-74
2022/07/14 03:55:34;;;;;;;;;;;;;;;10.97;100.00;101445.91;5027657;28;19913;-75
2022/07/14 03:58:00;;;;;;;;;;;;;;;11.03;100.00;101440.94;5042675;28;19924;-74
2022/07/14 04:00:28;;;;;;;;;;;;;;;11.15;100.00;101442.44;5041901;28;20011;-74
2022/07/14 04:02:54;;;;;;;;;;;;;;;11.23;100.00;101439.84;5027321;28;20016;-76
2022/07/14 04:05:24;;;;;;;;;;;;;;;11.28;100.00;101440.25;5011518;28;20404;-75
2022/07/14 04:07:52;;;;;;;;;;;;;;;11.33;100.00;101442.47;5042203;28;20363;-75
2022/07/14 04:10:18;;;;;;;;;;;;;;;11.44;100.00;101444.09;5010299;28;19966;-75
2022/07/14 04:12:44;;;;;;;;;;;;;;;11.53;100.00;101449.38;5041737;28;20148;-77
2022/07/14 04:15:10;;;;;;;;;;;;;;;11.61;100.00;101451.28;5010614;28;19974;-75
2022/07/14 04:17:35;;;;;;;;;;;;;;;11.78;100.00;101445.09;5034482;28;19924;-74
2022/07/14 04:20:02;;;;;;;;;;;;;;;11.88;100.00;101444.22;5040787;28;20366;-74
2022/07/14 04:22:29;;;;;;;;;;;;;;;12.01;100.00;101442.84;5040055;28;20416;-75
2022/07/14 04:24:55;;;;;;;;;;;;;;;12.06;100.00;101439.69;5016461;28;20444;-74
2022/07/14 04:27:20;;;;;;;;;;;;;;;12.24;100.00;101436.97;5040094;28;20051;-75
2022/07/14 04:29:46;;;;;;;;;;;;;;;12.34;100.00;101434.19;5041372;28;20301;-75
2022/07/14 04:32:12;;;;;;;;;;;;;;;12.41;100.00;101427.22;5041332;28;19957;-75
2022/07/14 04:34:38;;;;;;;;;;;;;;;12.56;100.00;101427.47;5010850;28;19917;-74
2022/07/14 04:37:03;;;;;;;;;;;;;;;12.59;100.00;101417.25;5039886;28;19912;-75
2022/07/14 04:39:28;;;;;;;;;;;;;;;12.66;100.00;101418.31;5041138;28;19913;-75
2022/07/14 04:41:55;;;;;;;;;;;;;;;12.78;100.00;101416.22;5041128;28;19917;-74
2022/07/14 04:44:20;;;;;;;;;;;;;;;12.77;100.00;101401.13;5041376;28;20306;-75
2022/07/14 04:46:45;;;;;;;;;;;;;;;12.88;100.00;101400.00;5041412;28;19913;-75
2022/07/14 04:52:02;;;;;;;;;;;;;;;12.98;100.00;101371.22;5026116;28;19913;-75
2022/07/14 04:54:32;;;;;;;;;;;;;;;13.10;100.00;101364.53;5040827;28;19917;-75
2022/07/14 04:57:30;;;;;;;;;;;;;;;13.15;100.00;101342.59;5041703;28;20298;-75
2022/07/14 04:59:56;;;;;;;;;;;;;;;13.28;100.00;101343.00;5026056;28;19920;-75
2022/07/14 05:02:22;;;;;;;;;;;;;;;13.43;100.00;101340.47;5041635;28;19913;-74
2022/07/14 05:04:47;;;;;;;;;;;;;;;13.58;100.00;101316.53;5027016;28;20007;-75
2022/07/14 05:07:13;;;;;;;;;;;;;;;13.68;100.00;101294.88;5025642;28;19921;-75
2022/07/14 05:09:44;;;;;;;;;;;;;;;13.82;100.00;101294.19;5038779;28;19920;-75
2022/07/14 05:12:13;;;;;;;;;;;;;;;13.94;100.00;101287.44;5033559;28;19913;-75
2022/07/14 05:14:38;;;;;;;;;;;;;;;14.15;100.00;101291.44;5025221;28;20417;-74
2022/07/14 05:17:04;;;;;;;;;;;;;;;14.25;100.00;101251.78;5041599;28;20823;-74
2022/07/14 05:19:30;;;;;;;;;;;;;;;14.42;100.00;101240.94;5024878;28;20008;-74
2022/07/14 05:21:56;;;;;;;;;;;;;;;14.40;100.00;101208.06;5041718;28;20508;-76
2022/07/14 05:24:22;;;;;;;;;;;;;;;14.71;100.00;101216.16;5041706;28;19909;-75
2022/07/14 05:26:47;;;;;;;;;;;;;;;14.99;100.00;101216.44;5041571;28;20297;-76
2022/07/14 05:29:13;;;;;;;;;;;;;;;15.34;100.00;101200.69;5041271;28;20392;-76
2022/07/14 05:31:39;;;;;;;;;;;;;;;15.41;100.00;101128.97;5032615;28;20806;-76
2022/07/14 05:34:06;;;;;;;;;;;;;;;15.80;100.00;101149.41;5037855;28;19960;-74
2022/07/14 05:36:32;;;;;;;;;;;;;;;16.28;100.00;101084.31;5024869;28;19920;-77
2022/07/14 05:38:58;;;;;;;;;;;;;;;16.85;100.00;101054.53;5026696;28;19936;-76
2022/07/14 05:41:23;;;;;;;;;;;;;;;17.80;100.00;101000.03;5040435;28;19920;-75
2022/07/14 05:43:48;;;;;;;;;;;;;;;18.60;100.00;100935.22;5041457;28;19909;-77
2022/07/14 05:46:14;;;;;;;;;;;;;;;19.46;100.00;100833.94;5031874;28;19917;-75
2022/07/14 05:48:40;;;;;;;;;;;;;;;19.52;100.00;100735.56;5038520;28;19913;-77
2022/07/14 05:51:12;;;;;;;;;;;;;;;19.25;100.00;100684.38;5035189;28;19917;-76
2022/07/14 05:53:40;;;;;;;;;;;;;;;20.13;100.00;100785.44;5024874;28;19917;-77
2022/07/14 05:56:06;;;;;;;;;;;;;;;20.75;90.42;100685.03;5033356;28;20340;-76
2022/07/14 05:58:32;;;;;;;;;;;;;;;20.91;84.51;100596.66;5025752;28;19913;-77
2022/07/14 06:00:58;;;;;;;;;;;;;;;19.99;89.46;100650.13;5033951;28;19909;-76
2022/07/14 06:03:24;;;;;;;;;;;;;;;20.66;91.31;100818.25;5043551;28;19955;-77
2022/07/14 06:05:49;;;;;;;;;;;;;;;20.13;90.64;100740.19;5042096;28;20416;-78
2022/07/14 06:08:15;;;;;;;;;;;;;;;20.85;86.93;100799.22;5027186;28;19963;-76
2022/07/14 06:10:41;;;;;;;;;;;;;;;20.23;84.35;100648.34;5044472;28;19928;-76
2022/07/14 06:13:07;;;;;;;;;;;;;;;21.19;81.29;100764.28;5017629;28;19972;-76
2022/07/14 06:15:33;;;;;;;;;;;;;;;20.91;83.29;100765.75;5032881;28;19942;-76
2022/07/14 06:17:58;;;;;;;;;;;;;;;21.07;76.81;100648.41;5024692;28;19913;-76
2022/07/14 06:20:24;;;;;;;;;;;;;;;21.58;74.63;100713.97;5040548;28;19917;-76
2022/07/14 06:22:50;;;;;;;;;;;;;;;21.74;72.34;100655.38;5037834;28;19917;-76
2022/07/14 06:25:16;;;;;;;;;;;;;;;21.87;74.01;100752.94;5014344;28;19909;-75
2022/07/14 06:27:43;;;;;;;;;;;;;;;22.34;69.86;100725.72;5021424;28;19932;-75
2022/07/14 06:30:09;;;;;;;;;;;;;;;20.99;72.80;100563.78;5035346;28;20035;-75
2022/07/14 06:32:41;;;;;;;;;;;;;;;21.28;74.18;100695.88;5032319;28;19924;-75
2022/07/14 06:35:11;;;;;;;;;;;;;;;21.43;74.12;100725.28;5040983;28;19947;-76
2022/07/14 06:37:37;;;;;;;;;;;;;;;21.46;72.74;100724.00;5020773;28;20321;-75
2022/07/14 06:40:05;;;;;;;;;;;;;;;21.51;71.74;100658.94;5017483;28;19921;-76
2022/07/14 06:42:33;;;;;;;;;;;;;;;20.44;72.88;100522.31;5024332;28;19913;-76
2022/07/14 06:45:17;;;;;;;;;;;;;;;19.94;76.04;100533.44;5026888;28;19955;-77
2022/07/14 06:47:44;;;;;;;;;;;;;;;19.33;81.16;100629.13;5044228;28;20004;-75
2022/07/14 06:50:09;;;;;;;;;;;;;;;19.56;84.14;100753.03;5018625;28;19963;-75
2022/07/14 06:52:35;;;;;;;;;;;;;;;19.92;78.41;100676.44;5032987;28;19917;-75
2022/07/14 06:55:01;;;;;;;;;;;;;;;19.43;79.52;100606.97;5025463;28;19920;-76
2022/07/14 06:57:27;;;;;;;;;;;;;;;20.18;79.91;100788.31;5044065;28;19928;-76
2022/07/14 06:59:52;;;;;;;;;;;;;;;20.35;76.49;100747.91;5028490;28;19909;-76
2022/07/14 07:02:19;;;;;;;;;;;;;;;21.12;69.90;100690.28;5027499;28;19920;-75
2022/07/14 07:04:45;;;;;;;;;;;;;;;21.20;70.28;100736.09;5024239;28;19972;-76
2022/07/14 07:07:10;;;;;;;;;;;;;;;21.35;69.99;100736.47;5041512;28;20480;-76
2022/07/14 07:09:36;;;;;;;;;;;;;;;22.33;65.12;100742.25;5019200;28;19909;-76
2022/07/14 07:12:01;;;;;;;;;;;;;;;22.06;64.24;100644.91;5028372;28;20335;-76
2022/07/14 07:14:27;;;;;;;;;;;;;;;21.75;64.28;100569.25;5026957;28;19920;-75
2022/07/14 07:16:52;;;;;;;;;;;;;;;21.67;64.34;100567.72;5035446;28;19920;-76
2022/07/14 07:19:17;;;;;;;;;;;;;;;21.63;62.76;100501.34;5026848;28;19969;-77
2022/07/14 07:21:43;;;;;;;;;;;;;;;21.67;67.14;100679.13;5027805;28;19976;-77
2022/07/14 07:24:09;;;;;;;;;;;;;;;21.73;68.35;100691.75;5018684;28;19909;-76
2022/07/14 07:26:35;;;;;;;;;;;;;;;21.39;64.30;100512.25;5043721;28;19925;-77
2022/07/14 07:29:01;;;;;;;;;;;;;;;20.78;68.61;100559.75;5026988;28;19909;-76
2022/07/14 07:31:27;;;;;;;;;;;;;;;21.27;66.09;100579.34;5027738;28;19913;-75
2022/07/14 07:33:53;;;;;;;;;;;;;;;21.70;67.00;100692.22;5040220;28;19944;-77
2022/07/14 07:36:18;;;;;;;;;;;;;;;20.98;65.32;100451.69;5043355;28;20500;-76
2022/07/14 07:38:44;;;;;;;;;;;;;;;21.45;65.69;100628.13;5035380;28;19916;-76
2022/07/14 07:41:09;;;;;;;;;;;;;;;20.52;63.79;100344.88;5043145;28;19920;-77
2022/07/14 07:43:35;;;;;;;;;;;;;;;21.66;59.69;100441.94;5027919;28;19916;-77
2022/07/14 07:46:02;;;;;;;;;;;;;;;21.70;65.61;100698.50;5027362;28;19927;-76
2022/07/14 07:48:28;;;;;;;;;;;;;;;21.97;59.69;100512.34;5028501;28;19933;-77
2022/07/14 07:50:55;;;;;;;;;;;;;;;21.19;61.59;100419.53;5027743;28;20285;-76
2022/07/14 07:53:20;;;;;;;;;;;;;;;21.78;60.06;100485.38;5018183;28;19916;-76
2022/07/14 07:55:45;;;;;;;;;;;;;;;21.16;62.04;100441.72;5026622;28;19920;-76
2022/07/14 07:58:11;;;;;;;;;;;;;;;21.24;63.99;100569.78;5028050;28;19974;-76
2022/07/14 08:00:36;;;;;;;;;;;;;;;20.95;63.65;100495.56;5027157;28;19927;-76
2022/07/14 08:03:02;;;;;;;;;;;;;;;20.42;68.20;100558.84;5027709;28;20298;-76
2022/07/14 08:05:29;;;;;;;;;;;;;;;20.86;67.34;100613.66;5043217;28;19919;-77
2022/07/14 08:07:55;;;;;;;;;;;;;;;21.91;64.34;100721.53;5028237;28;20313;-75
2022/07/14 08:10:20;;;;;;;;;;;;;;;22.12;60.15;100564.25;5042821;28;19945;-76
2022/07/14 08:12:45;;;;;;;;;;;;;;;21.40;58.91;100351.03;5039227;28;20374;-76
2022/07/14 08:15:11;;;;;;;;;;;;;;;21.42;63.02;100582.44;5024789;28;19976;-77
2022/07/14 08:17:36;;;;;;;;;;;;;;;21.40;63.74;100573.69;5042478;28;19956;-77
2022/07/14 08:20:02;;;;;;;;;;;;;;;21.34;65.74;100631.63;5027090;28;19913;-75
2022/07/14 08:22:28;;;;;;;;;;;;;;;21.56;60.65;100465.38;5033867;28;19916;-76
2022/07/14 08:24:54;;;;;;;;;;;;;;;21.55;63.81;100615.84;5026746;28;19917;-76
2022/07/14 08:27:20;;;;;;;;;;;;;;;21.12;64.47;100538.25;5026752;28;19912;-75
2022/07/14 08:29:45;;;;;;;;;;;;;;;20.84;68.40;100640.22;5041495;28;19920;-77
2022/07/14 08:32:10;;;;;;;;;;;;;;;21.48;66.74;100681.13;5038475;28;19909;-77
2022/07/14 08:34:37;;;;;;;;;;;;;;;21.45;64.70;100595.53;5026222;28;19917;-76
2022/07/14 08:37:03;;;;;;;;;;;;;;;21.56;60.01;100420.00;5026192;28;20328;-76
2022/07/14 08:39:28;;;;;;;;;;;;;;;21.61;60.06;100422.84;5041353;28;19913;-76
2022/07/14 08:41:57;;;;;;;;;;;;;;;21.95;59.44;100492.72;5041037;28;19913;-76
2022/07/14 08:44:25;;;;;;;;;;;;;;;21.59;59.97;100445.88;5025879;28;19913;-77
2022/07/14 08:46:50;;;;;;;;;;;;;;;22.07;56.94;100382.03;5026793;28;19920;-77
2022/07/14 08:49:17;;;;;;;;;;;;;;;22.80;55.78;100493.59;5041351;28;20460;-77
2022/07/14 08:51:42;;;;;;;;;;;;;;;22.87;56.60;100546.78;5025809;28;19915;-77
2022/07/14 08:54:09;;;;;;;;;;;;;;;22.40;55.20;100326.81;5041365;28;19917;-76
2022/07/14 08:56:34;;;;;;;;;;;;;;;22.28;54.22;100250.78;5025847;28;19913;-77
2022/07/14 08:59:00;;;;;;;;;;;;;;;21.68;52.73;100031.50;5026308;28;19917;-75
2022/07/14 09:01:26;;;;;;;;;;;;;;;21.92;54.70;100295.66;5040974;28;19915;-76
2022/07/14 09:03:52;;;;;;;;;;;;;;;21.39;57.64;100329.50;5026216;28;20316;-75
2022/07/14 09:06:36;;;;;;;;;;;;;;;21.31;58.99;100378.78;5010332;28;19909;-76
2022/07/14 09:09:01;;;;;;;;;;;;;;;20.78;61.83;100418.69;5025901;28;19949;-75
2022/07/14 09:11:27;;;;;;;;;;;;;;;20.42;62.61;100388.03;5015951;28;19971;-76
2022/07/14 09:13:52;;;;;;;;;;;;;;;20.86;59.90;100353.19;5025801;28;20294;-76
2022/07/14 09:16:19;;;;;;;;;;;;;;;20.95;59.36;100372.63;5026034;28;20370;-76
2022/07/14 09:19:00;;;;;;;;;;;;;;;21.25;56.54;100255.69;5027934;28;19925;-75
2022/07/14 09:21:26;;;;;;;;;;;;;;;21.62;56.40;100363.91;5040745;28;20297;-75
2022/07/14 09:23:54;;;;;;;;;;;;;;;22.62;55.12;100516.47;5033013;28;19915;-76
2022/07/14 09:26:20;;;;;;;;;;;;;;;22.26;54.51;100391.59;5025873;28;19917;-75
2022/07/14 09:28:46;;;;;;;;;;;;;;;22.92;53.54;100484.28;5026264;28;19954;-75
2022/07/14 09:31:23;;;;;;;;;;;;;;;23.07;52.71;100451.00;5038650;28;19914;-76
2022/07/14 09:33:55;;;;;;;;;;;;;;;23.46;53.05;100540.84;5032742;28;19968;-76
2022/07/14 09:36:29;;;;;;;;;;;;;;;22.18;53.02;100231.59;5041289;28;19913;-76
2022/07/14 09:39:20;;;;;;;;;;;;;;;22.20;54.71;100359.97;5024746;28;20762;-75
2022/07/14 09:41:50;;;;;;;;;;;;;;;22.05;54.71;100308.06;5023024;28;19998;-76
2022/07/14 09:44:19;;;;;;;;;;;;;;;21.19;55.53;100154.34;5025656;28;20047;-76
2022/07/14 09:46:47;;;;;;;;;;;;;;;21.04;56.10;100163.06;5024683;28;19978;-74
2022/07/14 09:49:14;;;;;;;;;;;;;;;20.97;56.98;100192.22;5008148;28;19941;-76
2022/07/14 09:51:59;;;;;;;;;;;;;;;20.72;59.27;100260.44;5025863;28;20785;-75
2022/07/14 09:54:36;;;;;;;;;;;;;;;21.25;56.74;100237.50;5024484;28;19932;-75
2022/07/14 09:57:02;;;;;;;;;;;;;;;21.40;55.89;100247.00;5025801;28;20328;-75
2022/07/14 09:59:27;;;;;;;;;;;;;;;22.46;55.47;100493.66;5032594;28;19914;-76
2022/07/14 10:01:53;;;;;;;;;;;;;;;23.12;52.78;100453.78;5037545;28;19924;-75
2022/07/14 10:04:20;;;;;;;;;;;;;;;23.21;51.09;100336.28;5024376;28;20761;-77
2022/07/14 10:06:46;;;;;;;;;;;;;;;22.62;56.03;100508.31;5024576;28;20377;-76
2022/07/14 10:09:11;;;;;;;;;;;;;;;22.56;55.29;100444.81;5025355;28;19913;-76
2022/07/14 10:11:37;;;;;;;;;;;;;;;21.93;55.62;100316.31;5024980;28;19921;-76
2022/07/14 10:14:03;;;;;;;;;;;;;;;21.39;55.79;100200.00;5040882;28;19939;-77
2022/07/14 10:16:33;;;;;;;;;;;;;;;21.28;56.48;100203.59;5033632;28;19917;-76
2022/07/14 10:19:00;;;;;;;;;;;;;;;20.94;56.31;100127.63;5041469;28;19909;-77
2022/07/14 10:21:26;;;;;;;;;;;;;;;20.90;59.88;100351.66;5036184;28;19920;-76
2022/07/14 10:23:52;;;;;;;;;;;;;;;21.32;59.09;100388.56;5029377;28;19952;-76
2022/07/14 10:26:17;;;;;;;;;;;;;;;20.89;59.68;100295.75;5028012;28;19912;-76
2022/07/14 10:28:43;;;;;;;;;;;;;;;21.46;59.23;100453.22;5041529;28;19992;-76
2022/07/14 10:31:14;;;;;;;;;;;;;;;21.00;56.60;100166.50;5024641;28;20012;-76
2022/07/14 10:33:39;;;;;;;;;;;;;;;20.99;53.85;100010.19;5034241;28;20022;-75
2022/07/14 10:36:10;;;;;;;;;;;;;;;21.49;56.24;100316.97;5038785;28;20366;-77
2022/07/14 10:38:39;;;;;;;;;;;;;;;21.40;55.58;100247.84;5029347;28;19992;-75
2022/07/14 10:41:23;;;;;;;;;;;;;;;20.96;56.86;100184.38;5027523;28;19986;-75
2022/07/14 10:44:05;;;;;;;;;;;;;;;21.16;59.57;100393.69;5023570;28;19965;-76
2022/07/14 10:46:38;;;;;;;;;;;;;;;21.23;60.47;100442.41;5044509;28;19921;-76
2022/07/14 10:49:04;;;;;;;;;;;;;;;20.76;57.56;100153.06;5027607;28;19948;-76
2022/07/14 10:51:32;;;;;;;;;;;;;;;20.91;57.00;100190.53;5027625;28;19991;-75
2022/07/14 10:54:00;;;;;;;;;;;;;;;20.72;60.48;100330.09;5035691;28;19947;-77
2022/07/14 10:56:26;;;;;;;;;;;;;;;21.00;60.86;100416.16;5036037;28;20354;-75
2022/07/14 10:59:10;;;;;;;;;;;;;;;20.60;61.77;100313.88;5028580;28;19960;-76
2022/07/14 11:01:36;;;;;;;;;;;;;;;21.18;60.96;100445.03;5028285;28;20034;-76
2022/07/14 11:04:01;;;;;;;;;;;;;;;20.64;59.17;100201.13;5040621;28;20267;-77
2022/07/14 11:06:27;;;;;;;;;;;;;;;20.36;60.64;100234.44;5027252;28;19913;-76
2022/07/14 11:09:11;;;;;;;;;;;;;;;20.58;62.85;100397.34;5028558;28;19932;-75
2022/07/14 11:11:37;;;;;;;;;;;;;;;20.14;64.49;100364.34;5043774;28;19920;-76
2022/07/14 11:14:07;;;;;;;;;;;;;;;20.11;64.80;100370.22;5028452;28;19913;-76
2022/07/14 11:16:44;;;;;;;;;;;;;;;20.51;61.47;100343.22;5043643;28;19920;-77
2022/07/14 11:19:30;;;;;;;;;;;;;;;20.78;61.25;100391.56;5043988;28;19916;-76
2022/07/14 11:22:11;;;;;;;;;;;;;;;21.30;58.49;100367.09;5012441;28;20019;-75
2022/07/14 11:24:43;;;;;;;;;;;;;;;21.49;57.25;100327.84;5021047;28;19996;-76
2022/07/14 11:27:43;;;;;;;;;;;;;;;21.23;59.47;100367.22;5043905;28;19920;-76
2022/07/14 11:30:27;;;;;;;;;;;;;;;21.66;61.38;100571.53;5023738;28;19920;-76
2022/07/14 11:32:58;;;;;;;;;;;;;;;21.66;60.81;100526.16;5027843;28;20462;-77
2022/07/14 11:38:26;;;;;;;;;;;;;;;20.94;61.91;100369.09;5028137;28;19916;-76
2022/07/14 11:40:51;;;;;;;;;;;;;;;20.58;62.40;100338.53;5026637;28;19915;-76
2022/07/14 11:43:29;;;;;;;;;;;;;;;20.77;64.29;100458.56;5026652;28;19913;-76
2022/07/14 11:45:58;;;;;;;;;;;;;;;20.70;65.21;100438.03;5040109;28;19921;-77
2022/07/14 11:48:30;;;;;;;;;;;;;;;20.55;70.19;100579.50;5027436;28;19951;-75
2022/07/14 11:51:03;;;;;;;;;;;;;;;20.75;67.96;100560.22;5034876;28;19913;-76
2022/07/14 11:53:29;;;;;;;;;;;;;;;20.28;66.02;100383.91;5026643;28;19917;-76
2022/07/14 11:55:55;;;;;;;;;;;;;;;20.27;62.13;100241.28;5027829;28;19912;-76
2022/07/14 11:58:23;;;;;;;;;;;;;;;20.63;64.94;100449.00;5018074;28;20282;-76
2022/07/14 12:00:55;;;;;;;;;;;;;;;19.81;61.50;100087.56;5026730;28;20764;-77
2022/07/14 12:03:21;;;;;;;;;;;;;;;20.16;64.41;100333.22;5028421;28;19912;-77
2022/07/14 12:05:50;;;;;;;;;;;;;;;19.79;63.75;100178.22;5024228;28;19909;-77
2022/07/14 12:08:20;;;;;;;;;;;;;;;20.09;63.71;100270.19;5026584;28;19913;-77
2022/07/14 12:10:45;;;;;;;;;;;;;;;20.15;62.16;100216.94;5028156;28;19915;-76
2022/07/14 12:13:11;;;;;;;;;;;;;;;20.03;59.55;100078.75;5018250;28;19913;-77
2022/07/14 12:15:36;;;;;;;;;;;;;;;19.58;59.81;100028.00;5028155;28;20277;-76
2022/07/14 12:18:04;;;;;;;;;;;;;;;19.19;61.00;100008.75;5032527;28;20444;-77
2022/07/14 12:20:41;;;;;;;;;;;;;;;19.42;62.55;100115.38;5034150;28;19920;-75
2022/07/14 12:23:06;;;;;;;;;;;;;;;19.32;62.17;100078.06;5027120;28;19919;-76
2022/07/14 12:25:32;;;;;;;;;;;;;;;19.15;64.63;100148.28;5025851;28;20304;-76
2022/07/14 12:27:59;;;;;;;;;;;;;;;19.35;65.48;100246.22;5034167;28;19971;-77
2022/07/14 12:30:24;;;;;;;;;;;;;;;19.89;66.42;100418.72;5024488;28;20016;-74
2022/07/14 12:32:53;;;;;;;;;;;;;;;20.09;68.29;100518.66;5031501;28;20008;-75
2022/07/14 12:35:20;;;;;;;;;;;;;;;20.05;67.95;100474.13;5043051;28;19927;-75
2022/07/14 12:37:46;;;;;;;;;;;;;;;20.02;69.09;100487.09;5026881;28;19984;-76
2022/07/14 12:40:12;;;;;;;;;;;;;;;20.01;69.94;100473.75;5026811;28;20437;-77
2022/07/14 12:42:37;;;;;;;;;;;;;;;20.66;67.78;100590.41;5038274;28;19920;-77